Time;durP1;ratioP1;P1;durP2;ratioP2;P2;SDS_P1;SDS_P2;PMS_P1;PMS_P2;Temp;Humidity;BMP_temperature;BMP_pressure;BME280_temperature;BME280_humidity;BME280_pressure;Samples;Min_cycle;Max_cycle;Signal;HPM_P1;HPM_P2
2022/04/13 00:00:32;;;;;;;2.43;1.50;;;;;;;;;;4509364;28;20029;-63
2022/04/13 00:02:43;;;;;;;1.63;1.13;;;;;;;;;;4494651;28;20223;-63
2022/04/13 00:04:54;;;;;;;1.80;1.03;;;;;;;;;;4509174;28;27968;-63
2022/04/13 00:07:04;;;;;;;2.70;1.30;;;;;;;;;;4507551;28;20042;-63
2022/04/13 00:09:15;;;;;;;1.90;1.27;;;;;;;;;;4505443;28;20095;-63
2022/04/13 00:11:25;;;;;;;2.83;1.43;;;;;;;;;;4507457;28;20038;-63
2022/04/13 00:13:35;;;;;;;4.23;2.10;;;;;;;;;;4487760;28;20030;-63
2022/04/13 00:15:46;;;;;;;4.57;2.30;;;;;;;;;;4490048;28;20049;-63
2022/04/13 00:17:57;;;;;;;5.60;2.80;;;;;;;;;;4509742;28;21081;-63
2022/04/13 00:20:07;;;;;;;5.83;2.70;;;;;;;;;;4509249;28;20034;-63
2022/04/13 00:22:18;;;;;;;5.47;2.87;;;;;;;;;;4499899;28;20646;-63
2022/04/13 00:24:28;;;;;;;6.17;3.10;;;;;;;;;;4507906;28;20291;-62
2022/04/13 00:26:39;;;;;;;4.40;2.47;;;;;;;;;;4507598;28;20066;-62
2022/04/13 00:28:50;;;;;;;4.13;2.42;;;;;;;;;;4490102;28;20428;-62
2022/04/13 00:31:00;;;;;;;3.53;2.33;;;;;;;;;;4512006;28;20988;-63
2022/04/13 00:33:11;;;;;;;5.07;2.93;;;;;;;;;;4494532;28;20049;-63
2022/04/13 00:35:21;;;;;;;3.67;2.17;;;;;;;;;;4511503;28;20049;-63
2022/04/13 00:37:32;;;;;;;3.97;2.00;;;;;;;;;;4512000;28;20026;-63
2022/04/13 00:39:43;;;;;;;3.97;2.17;;;;;;;;;;4510140;28;20569;-63
2022/04/13 00:42:05;;;;;;;2.70;1.53;;;;;;;;;;4510922;28;20033;-63
2022/04/13 00:44:16;;;;;;;3.67;1.75;;;;;;;;;;4511014;28;20565;-63
2022/04/13 00:46:27;;;;;;;3.40;1.73;;;;;;;;;;4511419;28;29902;-63
2022/04/13 00:48:40;;;;;;;2.93;1.80;;;;;;;;;;4511230;28;20038;-64
2022/04/13 00:50:51;;;;;;;3.25;1.80;;;;;;;;;;4512453;28;20029;-63
2022/04/13 00:53:01;;;;;;;2.37;1.43;;;;;;;;;;4509597;28;20042;-63
2022/04/13 00:55:14;;;;;;;2.37;1.40;;;;;;;;;;4494154;28;20042;-63
2022/04/13 00:57:24;;;;;;;2.90;1.50;;;;;;;;;;4492085;28;20148;-62
2022/04/13 00:59:36;;;;;;;2.63;1.60;;;;;;;;;;4483084;28;22582;-62
2022/04/13 01:01:48;;;;;;;2.13;1.40;;;;;;;;;;4508360;28;20646;-63
2022/04/13 01:04:00;;;;;;;2.80;1.60;;;;;;;;;;4510644;28;20025;-63
2022/04/13 01:06:10;;;;;;;2.53;1.58;;;;;;;;;;4511139;28;20037;-62
2022/04/13 01:08:21;;;;;;;3.93;1.83;;;;;;;;;;4511575;28;20030;-63
2022/04/13 01:10:32;;;;;;;1.93;1.10;;;;;;;;;;4509313;28;20065;-62
2022/04/13 01:12:43;;;;;;;2.22;1.40;;;;;;;;;;4493962;28;20308;-63
2022/04/13 01:14:53;;;;;;;1.63;1.23;;;;;;;;;;4512081;28;20062;-62
2022/04/13 01:17:04;;;;;;;2.70;1.30;;;;;;;;;;4511651;28;24376;-63
2022/04/13 01:19:17;;;;;;;1.57;1.20;;;;;;;;;;4511653;28;20687;-63
2022/04/13 01:21:40;;;;;;;1.45;1.13;;;;;;;;;;4510700;28;20040;-63
2022/04/13 01:23:50;;;;;;;1.67;1.13;;;;;;;;;;4510879;28;20599;-63
2022/04/13 01:26:00;;;;;;;1.40;1.20;;;;;;;;;;4510242;28;20061;-62
2022/04/13 01:28:11;;;;;;;1.83;1.20;;;;;;;;;;4511905;28;20045;-63
2022/04/13 01:30:25;;;;;;;1.67;0.97;;;;;;;;;;4510976;28;20041;-63
2022/04/13 01:32:35;;;;;;;1.98;1.10;;;;;;;;;;4512181;28;20030;-63
2022/04/13 01:34:47;;;;;;;2.17;1.10;;;;;;;;;;4508930;28;20592;-63
2022/04/13 01:36:58;;;;;;;1.83;1.08;;;;;;;;;;4482342;28;20035;-63
2022/04/13 01:39:08;;;;;;;2.73;1.20;;;;;;;;;;4510422;28;26263;-63
2022/04/13 01:41:19;;;;;;;1.80;1.13;;;;;;;;;;4495171;28;20605;-63
2022/04/13 01:43:29;;;;;;;1.53;1.10;;;;;;;;;;4511056;28;20667;-62
2022/04/13 01:45:39;;;;;;;2.50;1.30;;;;;;;;;;4510644;28;20516;-62
2022/04/13 01:47:50;;;;;;;3.20;1.37;;;;;;;;;;4492608;28;20904;-63
2022/04/13 01:50:01;;;;;;;3.42;1.58;;;;;;;;;;4491430;28;20034;-63
2022/04/13 01:52:12;;;;;;;2.00;1.30;;;;;;;;;;4493528;28;20046;-63
2022/04/13 01:54:22;;;;;;;2.73;1.53;;;;;;;;;;4510205;28;20042;-62
2022/04/13 01:56:32;;;;;;;2.97;1.40;;;;;;;;;;4510475;28;20525;-63
2022/04/13 01:58:43;;;;;;;1.60;1.30;;;;;;;;;;4509392;28;20033;-63
2022/04/13 02:00:54;;;;;;;2.33;1.30;;;;;;;;;;4509650;28;20060;-63
2022/04/13 02:03:05;;;;;;;1.10;0.90;;;;;;;;;;4490326;28;20586;-62
2022/04/13 02:05:15;;;;;;;1.70;1.00;;;;;;;;;;4495299;28;20034;-62
2022/04/13 02:07:26;;;;;;;1.67;1.17;;;;;;;;;;4508229;28;20046;-62
2022/04/13 02:09:37;;;;;;;1.92;1.00;;;;;;;;;;4510218;28;20930;-62
2022/04/13 02:11:47;;;;;;;1.80;1.30;;;;;;;;;;4511415;28;20121;-63
2022/04/13 02:13:58;;;;;;;1.20;0.80;;;;;;;;;;4494798;28;20979;-63
2022/04/13 02:16:08;;;;;;;2.20;1.10;;;;;;;;;;4510488;28;27016;-62
2022/04/13 02:18:19;;;;;;;2.00;1.17;;;;;;;;;;4512505;28;20037;-63
2022/04/13 02:20:29;;;;;;;2.13;1.20;;;;;;;;;;4491527;28;20042;-63
2022/04/13 02:22:40;;;;;;;1.50;1.10;;;;;;;;;;4510701;28;20052;-63
2022/04/13 02:24:51;;;;;;;1.63;1.15;;;;;;;;;;4482154;28;20129;-62
2022/04/13 02:27:02;;;;;;;2.07;1.10;;;;;;;;;;4510820;28;20149;-62
2022/04/13 02:29:13;;;;;;;1.70;1.20;;;;;;;;;;4490209;28;20038;-62
2022/04/13 02:31:23;;;;;;;1.27;1.17;;;;;;;;;;4491233;28;20787;-63
2022/04/13 02:33:33;;;;;;;1.77;1.30;;;;;;;;;;4510202;28;24489;-62
2022/04/13 02:35:44;;;;;;;1.73;1.20;;;;;;;;;;4511283;28;20042;-63
2022/04/13 02:37:54;;;;;;;1.10;0.90;;;;;;;;;;4510371;28;20121;-63
2022/04/13 02:40:09;;;;;;;3.60;1.20;;;;;;;;;;4510065;28;20042;-63
2022/04/13 02:42:19;;;;;;;2.13;1.20;;;;;;;;;;4508318;28;20069;-62
2022/04/13 02:44:30;;;;;;;1.30;1.10;;;;;;;;;;4509598;28;20517;-63
2022/04/13 02:46:41;;;;;;;1.60;1.20;;;;;;;;;;4509418;28;20523;-63
2022/04/13 02:48:52;;;;;;;2.47;1.20;;;;;;;;;;4490916;28;20182;-62
2022/04/13 02:51:02;;;;;;;2.37;1.20;;;;;;;;;;4491275;28;20026;-63
2022/04/13 02:53:13;;;;;;;3.27;1.30;;;;;;;;;;4490935;28;20042;-63
2022/04/13 02:55:23;;;;;;;2.17;1.20;;;;;;;;;;4490050;28;21297;-63
2022/04/13 02:57:34;;;;;;;1.70;1.30;;;;;;;;;;4491903;28;20033;-63
2022/04/13 02:59:46;;;;;;;2.13;1.50;;;;;;;;;;4510390;28;20474;-62
2022/04/13 03:01:56;;;;;;;2.17;1.08;;;;;;;;;;4509061;28;20029;-62
2022/04/13 03:04:07;;;;;;;1.57;1.10;;;;;;;;;;4508933;28;20026;-63
2022/04/13 03:06:17;;;;;;;2.13;1.37;;;;;;;;;;4511269;28;20034;-62
2022/04/13 03:08:27;;;;;;;1.80;1.30;;;;;;;;;;4509046;28;28131;-62
2022/04/13 03:10:38;;;;;;;2.40;1.20;;;;;;;;;;4491499;28;20046;-62
2022/04/13 03:12:48;;;;;;;2.53;1.00;;;;;;;;;;4508434;28;20498;-62
2022/04/13 03:15:01;;;;;;;2.20;1.30;;;;;;;;;;4507181;28;20030;-63
2022/04/13 03:17:11;;;;;;;2.03;1.48;;;;;;;;;;4508182;28;20049;-64
2022/04/13 03:19:22;;;;;;;2.13;1.10;;;;;;;;;;4508208;28;20645;-63
2022/04/13 03:21:32;;;;;;;1.17;0.97;;;;;;;;;;4509987;28;20092;-63
2022/04/13 03:23:43;;;;;;;1.50;1.20;;;;;;;;;;4484161;28;20398;-63
2022/04/13 03:25:53;;;;;;;1.53;1.20;;;;;;;;;;4491250;28;20096;-63
2022/04/13 03:28:04;;;;;;;1.37;1.23;;;;;;;;;;4509064;28;20045;-62
2022/04/13 03:30:16;;;;;;;1.67;1.20;;;;;;;;;;4509552;28;27875;-63
2022/04/13 03:32:26;;;;;;;2.30;1.15;;;;;;;;;;4496380;28;20094;-62
2022/04/13 03:34:37;;;;;;;1.20;1.10;;;;;;;;;;4479213;28;20089;-62
2022/04/13 03:36:48;;;;;;;1.70;1.33;;;;;;;;;;4508905;28;20111;-63
2022/04/13 03:38:59;;;;;;;1.73;1.23;;;;;;;;;;4509998;28;20017;-63
2022/04/13 03:41:09;;;;;;;2.73;1.33;;;;;;;;;;4489330;28;20042;-62
2022/04/13 03:43:20;;;;;;;1.83;1.27;;;;;;;;;;4510570;28;20035;-63
2022/04/13 03:45:30;;;;;;;1.63;1.10;;;;;;;;;;4509725;28;20104;-62
2022/04/13 03:47:41;;;;;;;1.30;0.90;;;;;;;;;;4509746;28;20033;-63
2022/04/13 03:49:52;;;;;;;1.70;1.20;;;;;;;;;;4478398;28;20039;-62
2022/04/13 03:52:03;;;;;;;1.87;1.27;;;;;;;;;;4509626;28;20057;-62
2022/04/13 03:54:13;;;;;;;1.67;1.47;;;;;;;;;;4509070;28;20034;-63
2022/04/13 03:56:24;;;;;;;1.53;1.23;;;;;;;;;;4508273;28;20597;-62
2022/04/13 03:58:34;;;;;;;2.93;1.30;;;;;;;;;;4510758;28;20034;-62
2022/04/13 04:00:44;;;;;;;1.50;1.20;;;;;;;;;;4509369;28;20489;-63
2022/04/13 04:02:55;;;;;;;1.80;1.10;;;;;;;;;;4508891;28;20123;-63
2022/04/13 04:05:06;;;;;;;1.88;1.30;;;;;;;;;;4512130;28;20084;-62
2022/04/13 04:07:17;;;;;;;1.65;1.05;;;;;;;;;;4511361;28;20617;-62
2022/04/13 04:09:27;;;;;;;2.23;1.10;;;;;;;;;;4513530;28;20044;-63
2022/04/13 04:11:38;;;;;;;1.70;1.10;;;;;;;;;;4493117;28;20130;-63
2022/04/13 04:13:48;;;;;;;1.93;1.23;;;;;;;;;;4492691;28;20045;-63
2022/04/13 04:16:00;;;;;;;1.70;1.10;;;;;;;;;;4511344;28;26850;-63
2022/04/13 04:18:10;;;;;;;;;;;;;;;;;;4503422;28;20121;-63
2022/04/13 04:20:20;;;;;;;1.52;1.23;;;;;;;;;;4512456;28;20445;-63
2022/04/13 04:22:31;;;;;;;2.57;1.40;;;;;;;;;;4512890;28;20088;-63
2022/04/13 04:24:41;;;;;;;2.03;1.43;;;;;;;;;;4511664;28;20784;-62
2022/04/13 04:26:52;;;;;;;1.37;1.20;;;;;;;;;;4493672;28;31341;-63
2022/04/13 04:29:02;;;;;;;1.50;1.37;;;;;;;;;;4513529;28;20029;-63
2022/04/13 04:31:13;;;;;;;1.50;1.10;;;;;;;;;;4512919;28;20505;-63
2022/04/13 04:33:24;;;;;;;1.77;1.40;;;;;;;;;;4511933;28;20045;-63
2022/04/13 04:35:35;;;;;;;1.60;1.40;;;;;;;;;;4491673;28;20042;-62
2022/04/13 04:37:46;;;;;;;2.63;1.30;;;;;;;;;;4502953;28;20040;-62
2022/04/13 04:39:56;;;;;;;1.80;1.17;;;;;;;;;;4512604;28;20081;-63
2022/04/13 04:42:07;;;;;;;2.60;1.30;;;;;;;;;;4514391;28;41598;-63
2022/04/13 04:44:17;;;;;;;1.80;1.50;;;;;;;;;;4511291;28;20120;-63
2022/04/13 04:46:28;;;;;;;1.57;1.20;;;;;;;;;;4493176;28;20121;-64
2022/04/13 04:48:42;;;;;;;3.00;1.50;;;;;;;;;;4493565;28;20030;-62
2022/04/13 04:50:52;;;;;;;2.33;1.30;;;;;;;;;;4493106;28;20026;-63
2022/04/13 04:53:03;;;;;;;2.23;1.53;;;;;;;;;;4510375;28;20057;-63
2022/04/13 04:55:19;;;;;;;2.83;1.27;;;;;;;;;;4512272;28;20335;-62
2022/04/13 04:57:30;;;;;;;1.73;1.40;;;;;;;;;;4479547;28;20046;-62
2022/04/13 04:59:40;;;;;;;2.13;1.20;;;;;;;;;;4511526;28;20030;-63
2022/04/13 05:01:50;;;;;;;1.43;1.10;;;;;;;;;;4510943;28;20422;-62
2022/04/13 05:04:01;;;;;;;1.63;1.20;;;;;;;;;;4512420;28;20040;-63
2022/04/13 05:06:11;;;;;;;2.00;1.20;;;;;;;;;;4511553;28;20037;-63
2022/04/13 05:08:22;;;;;;;1.63;1.17;;;;;;;;;;4493907;28;20085;-63
2022/04/13 05:10:32;;;;;;;2.80;1.47;;;;;;;;;;4514252;28;20056;-62
2022/04/13 05:12:43;;;;;;;2.50;1.30;;;;;;;;;;4511073;28;42636;-62
2022/04/13 05:14:55;;;;;;;2.17;1.50;;;;;;;;;;4497128;28;20202;-62
2022/04/13 05:17:06;;;;;;;2.33;1.45;;;;;;;;;;4508176;28;21700;-63
2022/04/13 05:19:17;;;;;;;2.30;1.33;;;;;;;;;;4510196;28;20034;-62
2022/04/13 05:21:27;;;;;;;1.67;1.40;;;;;;;;;;4510718;28;20060;-64
2022/04/13 05:23:37;;;;;;;1.83;1.20;;;;;;;;;;4510719;28;20096;-62
2022/04/13 05:25:48;;;;;;;1.43;1.23;;;;;;;;;;4490511;28;20513;-63
2022/04/13 05:27:59;;;;;;;1.87;1.20;;;;;;;;;;4510911;28;20065;-62
2022/04/13 05:30:11;;;;;;;2.27;1.33;;;;;;;;;;4510113;28;20103;-62
2022/04/13 05:32:21;;;;;;;2.13;1.25;;;;;;;;;;4509975;28;20384;-63
2022/04/13 05:34:32;;;;;;;2.27;1.50;;;;;;;;;;4492378;28;20084;-62
2022/04/13 05:36:42;;;;;;;2.40;1.40;;;;;;;;;;4511916;28;20034;-63
2022/04/13 05:38:53;;;;;;;2.43;1.47;;;;;;;;;;4490893;28;20493;-63
2022/04/13 05:41:03;;;;;;;2.40;1.30;;;;;;;;;;4491555;28;20018;-62
2022/04/13 05:43:13;;;;;;;2.37;1.43;;;;;;;;;;4510951;28;20036;-62
2022/04/13 05:45:24;;;;;;;3.60;2.00;;;;;;;;;;4510189;28;20034;-63
2022/04/13 05:47:35;;;;;;;3.60;1.95;;;;;;;;;;4510092;28;20109;-63
2022/04/13 05:49:45;;;;;;;2.93;1.90;;;;;;;;;;4510962;28;20104;-62
2022/04/13 05:51:56;;;;;;;3.37;2.10;;;;;;;;;;4510392;28;20048;-62
2022/04/13 05:54:06;;;;;;;3.70;1.83;;;;;;;;;;4509570;28;37376;-62
2022/04/13 05:56:17;;;;;;;3.07;1.70;;;;;;;;;;4492854;28;20058;-62
2022/04/13 05:58:28;;;;;;;2.40;1.60;;;;;;;;;;4511023;28;20597;-63
2022/04/13 06:00:39;;;;;;;3.55;1.77;;;;;;;;;;4510392;28;20030;-63
2022/04/13 06:02:50;;;;;;;2.20;1.55;;;;;;;;;;4509140;28;20038;-63
2022/04/13 06:05:00;;;;;;;1.70;1.43;;;;;;;;;;4509086;28;20034;-63
2022/04/13 06:07:11;;;;;;;2.57;1.80;;;;;;;;;;4509755;28;20394;-64
2022/04/13 06:09:22;;;;;;;2.30;1.63;;;;;;;;;;4491450;28;20039;-64
2022/04/13 06:11:32;;;;;;;2.72;1.38;;;;;;;;;;4507141;28;20124;-63
2022/04/13 06:13:43;;;;;;;2.23;1.50;;;;;;;;;;4510544;28;20197;-63
2022/04/13 06:15:53;;;;;;;1.93;1.50;;;;;;;;;;4510512;28;20149;-63
2022/04/13 06:18:04;;;;;;;1.50;1.20;;;;;;;;;;4507819;28;26143;-63
2022/04/13 06:20:14;;;;;;;1.90;1.40;;;;;;;;;;4510744;28;20041;-63
2022/04/13 06:22:25;;;;;;;2.07;1.53;;;;;;;;;;4511616;28;20029;-63
2022/04/13 06:24:35;;;;;;;2.10;1.60;;;;;;;;;;4494514;28;20558;-63
2022/04/13 06:26:46;;;;;;;2.30;1.60;;;;;;;;;;4509522;28;20045;-63
2022/04/13 06:28:56;;;;;;;2.57;1.80;;;;;;;;;;4509447;28;20105;-63
2022/04/13 06:31:07;;;;;;;2.37;1.40;;;;;;;;;;4490291;28;21973;-63
2022/04/13 06:33:18;;;;;;;2.33;1.67;;;;;;;;;;4509362;28;20034;-63
2022/04/13 06:35:29;;;;;;;;;;;;;;;;;;4492356;28;20042;-63
2022/04/13 06:37:40;;;;;;;2.10;1.60;;;;;;;;;;4510938;28;19916;-63
2022/04/13 06:39:50;;;;;;;;;;;;;;;;;;4509970;28;20036;-63
2022/04/13 06:42:01;;;;;;;1.83;1.30;;;;;;;;;;4510588;28;20078;-63
2022/04/13 06:44:11;;;;;;;2.70;1.60;;;;;;;;;;4491075;28;20042;-63
2022/04/13 06:46:22;;;;;;;1.80;1.50;;;;;;;;;;4511082;28;20084;-63
2022/04/13 06:48:33;;;;;;;1.83;1.50;;;;;;;;;;4478085;28;20159;-63
2022/04/13 06:50:43;;;;;;;3.20;1.63;;;;;;;;;;4510152;28;20072;-63
2022/04/13 06:52:54;;;;;;;2.30;1.40;;;;;;;;;;4509181;28;20025;-63
2022/04/13 06:55:05;;;;;;;3.13;1.60;;;;;;;;;;4509364;28;20038;-62
2022/04/13 06:57:16;;;;;;;4.35;1.77;;;;;;;;;;4510496;28;21305;-63
2022/04/13 06:59:26;;;;;;;2.60;1.63;;;;;;;;;;4489988;28;20072;-63
2022/04/13 07:01:37;;;;;;;1.70;1.33;;;;;;;;;;4508448;28;20618;-63
2022/04/13 07:03:47;;;;;;;2.53;1.60;;;;;;;;;;4509661;28;32706;-63
2022/04/13 07:05:57;;;;;;;2.30;1.63;;;;;;;;;;4498247;28;20042;-63
2022/04/13 07:08:08;;;;;;;2.93;1.87;;;;;;;;;;4510714;28;20445;-63
2022/04/13 07:10:19;;;;;;;2.10;1.53;;;;;;;;;;4508847;28;27719;-63
2022/04/13 07:12:36;;;;;;;2.35;1.40;;;;;;;;;;4509282;28;20120;-63
2022/04/13 07:14:46;;;;;;;2.17;1.70;;;;;;;;;;4508482;28;20038;-63
2022/04/13 07:16:57;;;;;;;3.63;2.00;;;;;;;;;;4489926;28;36129;-63
2022/04/13 07:19:07;;;;;;;3.57;1.70;;;;;;;;;;4510550;28;20042;-63
2022/04/13 07:21:18;;;;;;;3.07;1.90;;;;;;;;;;4508666;28;20045;-63
2022/04/13 07:23:29;;;;;;;2.53;1.87;;;;;;;;;;4510592;28;20237;-63
2022/04/13 07:25:40;;;;;;;4.05;1.90;;;;;;;;;;4510598;28;20038;-63
2022/04/13 07:27:50;;;;;;;4.30;2.17;;;;;;;;;;4510744;28;20482;-63
2022/04/13 07:30:01;;;;;;;3.27;2.17;;;;;;;;;;4490777;28;20045;-63
2022/04/13 07:32:11;;;;;;;4.10;2.10;;;;;;;;;;4499904;28;20042;-63
2022/04/13 07:34:21;;;;;;;3.33;2.30;;;;;;;;;;4511172;28;20436;-63
2022/04/13 07:36:32;;;;;;;4.93;2.53;;;;;;;;;;4510311;28;20045;-63
2022/04/13 07:38:42;;;;;;;3.43;1.97;;;;;;;;;;4491105;28;20061;-63
2022/04/13 07:40:53;;;;;;;2.90;2.10;;;;;;;;;;4490690;28;20045;-63
2022/04/13 07:43:04;;;;;;;4.77;2.10;;;;;;;;;;4508105;28;20030;-63
2022/04/13 07:45:14;;;;;;;2.63;1.83;;;;;;;;;;4508361;28;20030;-63
2022/04/13 07:47:26;;;;;;;2.58;1.73;;;;;;;;;;4492308;28;20035;-63
2022/04/13 07:49:37;;;;;;;;;;;;;;;;;;4510445;28;20033;-63
2022/04/13 07:51:47;;;;;;;1.90;1.48;;;;;;;;;;4494623;28;19924;-63
2022/04/13 07:54:00;;;;;;;2.73;1.70;;;;;;;;;;4509507;28;20042;-63
2022/04/13 07:56:10;;;;;;;2.15;1.67;;;;;;;;;;4491092;28;20837;-63
2022/04/13 07:58:21;;;;;;;2.73;1.70;;;;;;;;;;4509780;28;20088;-63
2022/04/13 08:00:31;;;;;;;2.53;1.63;;;;;;;;;;4509306;28;20042;-63
2022/04/13 08:02:43;;;;;;;2.00;1.60;;;;;;;;;;4491916;28;20046;-63
2022/04/13 08:04:55;;;;;;;3.28;1.63;;;;;;;;;;4490111;28;20101;-63
2022/04/13 08:07:05;;;;;;;4.53;1.70;;;;;;;;;;4491544;28;20038;-63
2022/04/13 08:09:16;;;;;;;2.90;1.67;;;;;;;;;;4510045;28;20045;-63
2022/04/13 08:11:26;;;;;;;4.27;1.60;;;;;;;;;;4507695;28;20037;-63
2022/04/13 08:13:37;;;;;;;3.27;1.93;;;;;;;;;;4494538;28;20046;-63
2022/04/13 08:15:47;;;;;;;4.77;2.13;;;;;;;;;;4510240;28;20045;-63
2022/04/13 08:17:58;;;;;;;3.57;2.10;;;;;;;;;;4508059;28;20120;-63
2022/04/13 08:20:11;;;;;;;5.03;2.10;;;;;;;;;;4491292;28;20114;-63
2022/04/13 08:22:23;;;;;;;3.58;1.88;;;;;;;;;;4490625;28;20055;-63
2022/04/13 08:24:34;;;;;;;3.67;2.05;;;;;;;;;;4507440;28;20109;-63
2022/04/13 08:26:44;;;;;;;3.97;2.17;;;;;;;;;;4508391;28;24908;-63
2022/04/13 08:28:55;;;;;;;3.63;2.00;;;;;;;;;;4509763;28;20034;-63
2022/04/13 08:31:07;;;;;;;3.00;1.90;;;;;;;;;;4509076;28;25676;-63
2022/04/13 08:33:18;;;;;;;4.25;2.40;;;;;;;;;;4507640;28;20602;-63
2022/04/13 08:35:29;;;;;;;4.40;2.25;;;;;;;;;;4506014;28;20081;-63
2022/04/13 08:37:40;;;;;;;4.70;2.57;;;;;;;;;;4510143;28;20128;-64
2022/04/13 08:39:50;;;;;;;4.25;2.20;;;;;;;;;;4494379;28;20034;-63
2022/04/13 08:42:21;;;;;;;4.00;2.23;;;;;;;;;;4492857;28;20034;-65
2022/04/13 08:44:47;;;;;;;5.63;2.15;;;;;;;;;;4492266;28;20597;-63
2022/04/13 08:47:01;;;;;;;3.85;2.15;;;;;;;;;;4509692;28;20038;-63
2022/04/13 08:49:14;;;;;;;4.15;2.53;;;;;;;;;;4510718;28;20073;-63
2022/04/13 08:51:24;;;;;;;4.32;2.28;;;;;;;;;;4491382;28;20065;-64
2022/04/13 08:53:36;;;;;;;4.00;2.20;;;;;;;;;;4512596;28;20033;-63
2022/04/13 08:55:52;;;;;;;4.95;2.40;;;;;;;;;;4512050;28;20050;-63
2022/04/13 08:58:13;;;;;;;4.35;2.10;;;;;;;;;;4510466;28;21143;-63
2022/04/13 09:00:25;;;;;;;4.25;2.00;;;;;;;;;;4513136;28;20033;-63
2022/04/13 09:02:47;;;;;;;5.28;2.25;;;;;;;;;;4501913;28;20096;-63
2022/04/13 09:05:00;;;;;;;4.97;2.50;;;;;;;;;;4511076;28;20034;-64
2022/04/13 09:07:13;;;;;;;3.28;2.08;;;;;;;;;;4493142;28;20126;-63
2022/04/13 09:09:46;;;;;;;4.68;2.40;;;;;;;;;;4482897;28;20034;-63
2022/04/13 09:11:58;;;;;;;5.05;2.47;;;;;;;;;;4491404;28;20042;-63
2022/04/13 09:14:08;;;;;;;4.25;2.20;;;;;;;;;;4502553;28;20038;-63
2022/04/13 09:16:19;;;;;;;5.73;2.40;;;;;;;;;;4510805;28;20717;-63
2022/04/13 09:18:29;;;;;;;4.93;2.33;;;;;;;;;;4493129;28;20749;-64
2022/04/13 09:20:40;;;;;;;3.97;2.30;;;;;;;;;;4481268;28;31628;-64
2022/04/13 09:22:53;;;;;;;4.07;2.03;;;;;;;;;;4495629;28;20042;-63
2022/04/13 09:25:04;;;;;;;5.22;2.20;;;;;;;;;;4493513;28;20042;-64
2022/04/13 09:27:14;;;;;;;;;;;;;;;;;;4491528;28;20628;-63
2022/04/13 09:29:25;;;;;;;4.35;2.20;;;;;;;;;;4510719;28;20023;-63
2022/04/13 09:31:36;;;;;;;4.40;2.00;;;;;;;;;;4510239;28;20124;-63
2022/04/13 09:33:47;;;;;;;5.70;2.60;;;;;;;;;;4512392;28;20038;-63
2022/04/13 09:35:57;;;;;;;5.03;2.30;;;;;;;;;;4511200;28;20155;-63
2022/04/13 09:38:08;;;;;;;4.37;1.93;;;;;;;;;;4508518;28;20042;-63
2022/04/13 09:40:39;;;;;;;6.93;2.57;;;;;;;;;;4495626;28;20034;-63
2022/04/13 09:42:49;;;;;;;4.47;2.30;;;;;;;;;;4495082;28;20604;-63
2022/04/13 09:45:03;;;;;;;4.97;2.30;;;;;;;;;;4510975;28;20093;-63
2022/04/13 09:47:13;;;;;;;4.47;1.88;;;;;;;;;;4496517;28;20025;-63
2022/04/13 09:49:23;;;;;;;5.70;2.37;;;;;;;;;;4510197;28;20109;-63
2022/04/13 09:51:36;;;;;;;5.77;2.37;;;;;;;;;;4511795;28;20034;-63
2022/04/13 09:53:46;;;;;;;6.65;2.72;;;;;;;;;;4501030;28;20034;-63
2022/04/13 09:56:01;;;;;;;4.57;2.20;;;;;;;;;;4494545;28;20541;-63
2022/04/13 09:58:13;;;;;;;5.93;2.40;;;;;;;;;;4510770;28;20532;-63
2022/04/13 10:00:24;;;;;;;5.22;2.38;;;;;;;;;;4510750;28;20064;-63
2022/04/13 10:02:44;;;;;;;5.80;2.35;;;;;;;;;;4474380;28;20093;-63
2022/04/13 10:04:55;;;;;;;4.00;2.42;;;;;;;;;;4491305;28;20762;-63
2022/04/13 10:07:16;;;;;;;5.40;2.60;;;;;;;;;;4493144;28;20038;-64
2022/04/13 10:09:31;;;;;;;3.75;1.90;;;;;;;;;;4507629;28;20068;-63
2022/04/13 10:11:58;;;;;;;6.72;2.83;;;;;;;;;;4510566;28;32734;-64
2022/04/13 10:14:09;;;;;;;4.05;2.13;;;;;;;;;;4485906;28;20050;-63
2022/04/13 10:16:20;;;;;;;6.53;2.10;;;;;;;;;;4510361;28;20042;-63
2022/04/13 10:18:54;;;;;;;3.83;1.88;;;;;;;;;;4510598;28;20786;-64
2022/04/13 10:21:06;;;;;;;5.43;2.20;;;;;;;;;;4501253;28;20139;-63
2022/04/13 10:23:16;;;;;;;6.23;2.37;;;;;;;;;;4508991;28;20033;-63
2022/04/13 10:25:27;;;;;;;3.93;2.47;;;;;;;;;;4509183;28;20062;-63
2022/04/13 10:27:55;;;;;;;5.55;2.60;;;;;;;;;;4492630;28;20826;-63
2022/04/13 10:30:07;;;;;;;5.95;2.88;;;;;;;;;;4474821;28;20034;-64
2022/04/13 10:32:25;;;;;;;5.38;2.50;;;;;;;;;;4511581;28;20140;-64
2022/04/13 10:34:37;;;;;;;5.78;2.40;;;;;;;;;;4501751;28;20732;-64
2022/04/13 10:36:48;;;;;;;6.97;2.88;;;;;;;;;;4492452;28;20107;-63
2022/04/13 10:38:58;;;;;;;5.30;2.37;;;;;;;;;;4490524;28;20046;-64
2022/04/13 10:41:14;;;;;;;6.53;2.73;;;;;;;;;;4511133;28;20037;-63
2022/04/13 10:43:26;;;;;;;6.80;2.40;;;;;;;;;;4511227;28;20026;-63
2022/04/13 10:45:39;;;;;;;5.88;2.38;;;;;;;;;;4490563;28;40386;-63
2022/04/13 10:47:53;;;;;;;4.85;2.20;;;;;;;;;;4508420;28;20036;-64
2022/04/13 10:50:07;;;;;;;4.78;2.35;;;;;;;;;;4492772;28;20061;-64
2022/04/13 10:52:27;;;;;;;5.75;2.72;;;;;;;;;;4509578;28;20101;-63
2022/04/13 10:54:38;;;;;;;7.80;2.55;;;;;;;;;;4511057;28;20040;-63
2022/04/13 10:56:56;;;;;;;5.85;2.50;;;;;;;;;;4511190;28;20650;-63
2022/04/13 10:59:19;;;;;;;4.93;2.30;;;;;;;;;;4510193;28;20034;-63
2022/04/13 11:01:36;;;;;;;4.95;2.47;;;;;;;;;;4508791;28;20172;-63
2022/04/13 11:03:47;;;;;;;6.65;2.63;;;;;;;;;;4509920;28;20038;-64
2022/04/13 11:05:59;;;;;;;6.07;2.65;;;;;;;;;;4494605;28;20034;-64
2022/04/13 11:08:25;;;;;;;;;;;;;;;;;;4510998;28;20033;-63
2022/04/13 11:10:36;;;;;;;4.65;2.50;;;;;;;;;;4490319;28;19922;-63
2022/04/13 11:12:47;;;;;;;6.20;2.67;;;;;;;;;;4491160;28;20137;-63
2022/04/13 11:15:01;;;;;;;5.88;2.65;;;;;;;;;;4493190;28;20429;-63
2022/04/13 11:17:13;;;;;;;6.55;2.50;;;;;;;;;;4508917;28;20038;-64
2022/04/13 11:19:23;;;;;;;6.82;2.60;;;;;;;;;;4509682;28;20048;-63
2022/04/13 11:21:50;;;;;;;6.07;3.17;;;;;;;;;;4510111;28;20048;-63
2022/04/13 11:24:01;;;;;;;5.63;2.45;;;;;;;;;;4509564;28;21050;-63
2022/04/13 11:26:11;;;;;;;5.77;2.93;;;;;;;;;;4508307;28;29909;-63
2022/04/13 11:28:23;;;;;;;7.00;3.10;;;;;;;;;;4508754;28;20736;-64
2022/04/13 11:31:02;;;;;;;6.30;2.72;;;;;;;;;;4491208;28;20066;-63
2022/04/13 11:33:13;;;;;;;5.72;2.78;;;;;;;;;;4510368;28;20131;-64
2022/04/13 11:35:25;;;;;;;6.40;2.67;;;;;;;;;;4491556;28;20033;-63
2022/04/13 11:37:35;;;;;;;7.05;2.95;;;;;;;;;;4509373;28;20036;-63
2022/04/13 11:39:52;;;;;;;5.37;2.80;;;;;;;;;;4510366;28;20040;-63
2022/04/13 11:42:02;;;;;;;5.88;2.67;;;;;;;;;;4510341;28;20061;-63
2022/04/13 11:44:16;;;;;;;4.97;3.03;;;;;;;;;;4509612;28;20112;-64
2022/04/13 11:46:38;;;;;;;5.18;2.90;;;;;;;;;;4509683;28;20042;-64
2022/04/13 11:48:49;;;;;;;7.72;2.90;;;;;;;;;;4508109;28;20049;-64
2022/04/13 11:51:35;;;;;;;4.83;2.47;;;;;;;;;;4506975;28;28987;-64
2022/04/13 11:53:56;;;;;;;6.70;2.70;;;;;;;;;;4428069;28;20103;-64
2022/04/13 11:56:06;;;;;;;6.03;2.38;;;;;;;;;;4480006;28;20042;-64
2022/04/13 11:58:21;;;;;;;5.67;2.30;;;;;;;;;;4508760;28;20463;-64
2022/04/13 12:00:39;;;;;;;5.55;2.47;;;;;;;;;;4492812;28;20045;-64
2022/04/13 12:02:50;;;;;;;5.30;2.47;;;;;;;;;;4510345;28;20033;-64
2022/04/13 12:05:02;;;;;;;5.78;2.95;;;;;;;;;;4491242;28;20035;-63
2022/04/13 12:07:12;;;;;;;6.88;2.53;;;;;;;;;;4499959;28;20586;-64
2022/04/13 12:09:22;;;;;;;5.87;2.93;;;;;;;;;;4508643;28;20038;-64
2022/04/13 12:11:41;;;;;;;5.33;2.70;;;;;;;;;;4510298;28;20075;-64
2022/04/13 12:13:54;;;;;;;6.22;2.85;;;;;;;;;;4508590;28;20789;-64
2022/04/13 12:16:05;;;;;;;5.60;2.65;;;;;;;;;;4494464;28;20038;-64
2022/04/13 12:18:16;;;;;;;6.72;2.75;;;;;;;;;;4498319;28;20132;-63
2022/04/13 12:20:28;;;;;;;5.45;2.33;;;;;;;;;;4476552;28;20148;-64
2022/04/13 12:22:38;;;;;;;4.53;2.40;;;;;;;;;;4509442;28;20033;-64
2022/04/13 12:25:07;;;;;;;7.23;3.03;;;;;;;;;;4508980;28;31939;-64
2022/04/13 12:27:18;;;;;;;6.70;2.80;;;;;;;;;;4492580;28;20045;-64
2022/04/13 12:29:29;;;;;;;5.30;2.60;;;;;;;;;;4512839;28;20410;-63
2022/04/13 12:31:57;;;;;;;5.68;2.60;;;;;;;;;;4513585;28;20030;-63
2022/04/13 12:34:08;;;;;;;6.13;2.53;;;;;;;;;;4512696;28;20033;-64
2022/04/13 12:36:18;;;;;;;6.87;2.50;;;;;;;;;;4492956;28;27547;-63
2022/04/13 12:38:41;;;;;;;5.63;2.70;;;;;;;;;;4512011;28;21071;-64
2022/04/13 12:41:01;;;;;;;6.22;2.65;;;;;;;;;;4493505;28;20209;-63
2022/04/13 12:43:11;;;;;;;8.38;2.90;;;;;;;;;;4510497;28;20033;-64
2022/04/13 12:45:29;;;;;;;4.33;2.37;;;;;;;;;;4511885;28;20037;-64
2022/04/13 12:47:47;;;;;;;5.63;2.17;;;;;;;;;;4491523;28;20100;-64
2022/04/13 12:50:01;;;;;;;5.75;2.33;;;;;;;;;;4513305;28;20038;-64
2022/04/13 12:52:12;;;;;;;6.13;2.42;;;;;;;;;;4493441;28;20042;-63
2022/04/13 12:54:22;;;;;;;6.22;3.05;;;;;;;;;;4513380;28;21006;-64
2022/04/13 12:56:38;;;;;;;8.47;2.87;;;;;;;;;;4513314;28;20699;-63
2022/04/13 12:58:48;;;;;;;6.47;2.63;;;;;;;;;;4512442;28;20323;-63
2022/04/13 13:00:59;;;;;;;6.80;2.60;;;;;;;;;;4492865;28;20038;-64
2022/04/13 13:03:09;;;;;;;6.83;2.60;;;;;;;;;;4512414;28;20914;-64
2022/04/13 13:05:24;;;;;;;3.63;2.00;;;;;;;;;;4510078;28;21689;-64
2022/04/13 13:07:36;;;;;;;3.83;2.10;;;;;;;;;;4510100;28;20988;-63
2022/04/13 13:09:52;;;;;;;5.53;2.25;;;;;;;;;;4496119;28;20034;-64
2022/04/13 13:12:12;;;;;;;6.18;2.40;;;;;;;;;;4512431;28;20177;-64
2022/04/13 13:14:33;;;;;;;5.28;2.22;;;;;;;;;;4502096;28;20108;-63